sensor_id;sensor_type;location;lat;lon;timestamp;P1;durP1;ratioP1;P2;durP2;ratioP2
33475;SDS011;19814;48.224;11.422;2023-05-29T00:00:57;13.55;;;6.20;;
33475;SDS011;19814;48.224;11.422;2023-05-29T00:03:22;13.13;;;6.45;;
33475;SDS011;19814;48.224;11.422;2023-05-29T00:05:48;10.48;;;5.80;;
33475;SDS011;19814;48.224;11.422;2023-05-29T00:08:14;12.43;;;6.25;;
33475;SDS011;19814;48.224;11.422;2023-05-29T00:10:40;9.27;;;5.40;;
33475;SDS011;19814;48.224;11.422;2023-05-29T00:13:05;12.57;;;6.40;;
33475;SDS011;19814;48.224;11.422;2023-05-29T00:15:31;11.27;;;6.00;;
33475;SDS011;19814;48.224;11.422;2023-05-29T00:17:57;12.60;;;6.65;;
33475;SDS011;19814;48.224;11.422;2023-05-29T00:20:22;15.35;;;6.75;;
33475;SDS011;19814;48.224;11.422;2023-05-29T00:22:48;11.77;;;5.82;;
33475;SDS011;19814;48.224;11.422;2023-05-29T00:25:14;13.57;;;5.85;;
33475;SDS011;19814;48.224;11.422;2023-05-29T00:27:40;12.13;;;5.53;;
33475;SDS011;19814;48.224;11.422;2023-05-29T00:30:06;12.02;;;5.60;;
33475;SDS011;19814;48.224;11.422;2023-05-29T00:32:32;12.27;;;6.22;;
33475;SDS011;19814;48.224;11.422;2023-05-29T00:34:58;13.15;;;6.05;;
33475;SDS011;19814;48.224;11.422;2023-05-29T00:37:23;13.45;;;5.93;;
33475;SDS011;19814;48.224;11.422;2023-05-29T00:39:53;12.50;;;6.30;;
33475;SDS011;19814;48.224;11.422;2023-05-29T00:42:19;10.68;;;6.22;;
33475;SDS011;19814;48.224;11.422;2023-05-29T00:44:45;10.43;;;5.97;;
33475;SDS011;19814;48.224;11.422;2023-05-29T00:47:11;12.52;;;6.68;;
33475;SDS011;19814;48.224;11.422;2023-05-29T00:49:37;12.63;;;6.20;;
33475;SDS011;19814;48.224;11.422;2023-05-29T00:52:03;12.82;;;6.30;;
33475;SDS011;19814;48.224;11.422;2023-05-29T00:54:31;10.50;;;5.85;;
33475;SDS011;19814;48.224;11.422;2023-05-29T00:57:01;12.57;;;5.72;;
33475;SDS011;19814;48.224;11.422;2023-05-29T00:59:31;12.30;;;6.05;;
33475;SDS011;19814;48.224;11.422;2023-05-29T01:01:59;10.70;;;5.90;;
33475;SDS011;19814;48.224;11.422;2023-05-29T01:04:25;13.77;;;6.35;;
33475;SDS011;19814;48.224;11.422;2023-05-29T01:06:59;12.35;;;6.38;;
33475;SDS011;19814;48.224;11.422;2023-05-29T01:09:31;12.85;;;6.13;;
33475;SDS011;19814;48.224;11.422;2023-05-29T01:12:14;14.57;;;5.70;;
33475;SDS011;19814;48.224;11.422;2023-05-29T01:17:42;9.38;;;4.85;;
33475;SDS011;19814;48.224;11.422;2023-05-29T01:28:25;13.85;;;6.65;;
33475;SDS011;19814;48.224;11.422;2023-05-29T01:31:02;11.40;;;6.07;;
33475;SDS011;19814;48.224;11.422;2023-05-29T01:33:29;11.45;;;6.10;;
33475;SDS011;19814;48.224;11.422;2023-05-29T01:35:54;12.80;;;6.10;;
33475;SDS011;19814;48.224;11.422;2023-05-29T01:38:20;10.68;;;5.40;;
33475;SDS011;19814;48.224;11.422;2023-05-29T01:40:46;10.90;;;5.95;;
33475;SDS011;19814;48.224;11.422;2023-05-29T01:43:12;11.88;;;5.85;;
33475;SDS011;19814;48.224;11.422;2023-05-29T01:45:39;11.60;;;6.63;;
33475;SDS011;19814;48.224;11.422;2023-05-29T01:48:05;11.07;;;5.45;;
33475;SDS011;19814;48.224;11.422;2023-05-29T01:50:31;10.88;;;5.43;;
33475;SDS011;19814;48.224;11.422;2023-05-29T01:52:57;17.77;;;5.93;;
33475;SDS011;19814;48.224;11.422;2023-05-29T01:55:23;12.90;;;5.72;;
33475;SDS011;19814;48.224;11.422;2023-05-29T01:57:48;15.02;;;6.97;;
33475;SDS011;19814;48.224;11.422;2023-05-29T02:00:16;12.98;;;6.05;;
33475;SDS011;19814;48.224;11.422;2023-05-29T02:02:42;15.30;;;6.25;;
33475;SDS011;19814;48.224;11.422;2023-05-29T02:05:08;11.20;;;6.32;;
33475;SDS011;19814;48.224;11.422;2023-05-29T02:07:34;12.48;;;6.63;;
33475;SDS011;19814;48.224;11.422;2023-05-29T02:10:04;12.68;;;6.07;;
33475;SDS011;19814;48.224;11.422;2023-05-29T02:12:30;11.77;;;6.28;;
33475;SDS011;19814;48.224;11.422;2023-05-29T02:14:55;11.80;;;5.35;;
33475;SDS011;19814;48.224;11.422;2023-05-29T02:17:21;11.32;;;6.38;;
33475;SDS011;19814;48.224;11.422;2023-05-29T02:19:47;13.32;;;6.10;;
33475;SDS011;19814;48.224;11.422;2023-05-29T02:22:13;13.35;;;6.43;;
33475;SDS011;19814;48.224;11.422;2023-05-29T02:24:38;10.07;;;5.53;;
33475;SDS011;19814;48.224;11.422;2023-05-29T02:27:04;11.50;;;5.68;;
33475;SDS011;19814;48.224;11.422;2023-05-29T02:29:30;12.55;;;5.65;;
33475;SDS011;19814;48.224;11.422;2023-05-29T02:31:55;11.90;;;5.82;;
33475;SDS011;19814;48.224;11.422;2023-05-29T02:34:21;10.90;;;6.10;;
33475;SDS011;19814;48.224;11.422;2023-05-29T02:36:50;14.88;;;6.32;;
33475;SDS011;19814;48.224;11.422;2023-05-29T02:39:19;15.63;;;5.85;;
33475;SDS011;19814;48.224;11.422;2023-05-29T02:41:45;12.30;;;5.60;;
33475;SDS011;19814;48.224;11.422;2023-05-29T02:44:10;12.57;;;5.97;;
33475;SDS011;19814;48.224;11.422;2023-05-29T02:46:36;10.90;;;6.07;;
33475;SDS011;19814;48.224;11.422;2023-05-29T02:49:01;12.73;;;6.45;;
33475;SDS011;19814;48.224;11.422;2023-05-29T02:51:27;12.85;;;6.47;;
33475;SDS011;19814;48.224;11.422;2023-05-29T02:53:53;10.98;;;5.57;;
33475;SDS011;19814;48.224;11.422;2023-05-29T02:56:19;16.10;;;6.22;;
33475;SDS011;19814;48.224;11.422;2023-05-29T02:58:48;14.50;;;6.40;;
33475;SDS011;19814;48.224;11.422;2023-05-29T03:01:17;10.88;;;5.53;;
33475;SDS011;19814;48.224;11.422;2023-05-29T03:03:43;14.13;;;5.88;;
33475;SDS011;19814;48.224;11.422;2023-05-29T03:06:08;12.90;;;6.68;;
33475;SDS011;19814;48.224;11.422;2023-05-29T03:08:35;14.65;;;6.10;;
33475;SDS011;19814;48.224;11.422;2023-05-29T03:11:04;9.93;;;5.00;;
33475;SDS011;19814;48.224;11.422;2023-05-29T03:13:32;14.18;;;5.57;;
33475;SDS011;19814;48.224;11.422;2023-05-29T03:15:59;10.40;;;5.38;;
33475;SDS011;19814;48.224;11.422;2023-05-29T03:18:25;8.50;;;5.00;;
33475;SDS011;19814;48.224;11.422;2023-05-29T03:20:50;11.52;;;5.70;;
33475;SDS011;19814;48.224;11.422;2023-05-29T03:23:16;9.40;;;5.10;;
33475;SDS011;19814;48.224;11.422;2023-05-29T03:25:41;10.77;;;4.85;;
33475;SDS011;19814;48.224;11.422;2023-05-29T03:28:07;12.00;;;5.55;;
33475;SDS011;19814;48.224;11.422;2023-05-29T03:30:33;10.70;;;5.85;;
33475;SDS011;19814;48.224;11.422;2023-05-29T03:32:58;11.75;;;4.93;;
33475;SDS011;19814;48.224;11.422;2023-05-29T03:35:28;10.98;;;5.63;;
33475;SDS011;19814;48.224;11.422;2023-05-29T03:37:54;10.57;;;5.32;;
33475;SDS011;19814;48.224;11.422;2023-05-29T03:40:20;12.77;;;6.10;;
33475;SDS011;19814;48.224;11.422;2023-05-29T03:42:45;12.55;;;5.75;;
33475;SDS011;19814;48.224;11.422;2023-05-29T03:45:11;9.70;;;5.47;;
33475;SDS011;19814;48.224;11.422;2023-05-29T03:47:36;13.00;;;5.63;;
33475;SDS011;19814;48.224;11.422;2023-05-29T03:50:02;12.55;;;6.65;;
33475;SDS011;19814;48.224;11.422;2023-05-29T03:52:27;10.88;;;5.32;;
33475;SDS011;19814;48.224;11.422;2023-05-29T03:54:53;10.32;;;5.72;;
33475;SDS011;19814;48.224;11.422;2023-05-29T03:57:19;14.32;;;6.40;;
33475;SDS011;19814;48.224;11.422;2023-05-29T03:59:44;12.15;;;6.10;;
33475;SDS011;19814;48.224;11.422;2023-05-29T04:02:10;10.88;;;5.72;;
33475;SDS011;19814;48.224;11.422;2023-05-29T04:04:35;12.85;;;6.25;;
33475;SDS011;19814;48.224;11.422;2023-05-29T04:07:01;13.27;;;6.20;;
33475;SDS011;19814;48.224;11.422;2023-05-29T04:09:26;10.88;;;5.63;;
33475;SDS011;19814;48.224;11.422;2023-05-29T04:11:52;10.65;;;5.90;;
33475;SDS011;19814;48.224;11.422;2023-05-29T04:14:19;11.07;;;5.72;;
33475;SDS011;19814;48.224;11.422;2023-05-29T04:16:45;11.00;;;5.72;;
33475;SDS011;19814;48.224;11.422;2023-05-29T04:19:10;11.75;;;6.38;;
33475;SDS011;19814;48.224;11.422;2023-05-29T04:21:36;11.05;;;5.95;;
33475;SDS011;19814;48.224;11.422;2023-05-29T04:24:02;13.80;;;6.28;;
33475;SDS011;19814;48.224;11.422;2023-05-29T04:26:27;11.10;;;5.55;;
33475;SDS011;19814;48.224;11.422;2023-05-29T04:28:53;12.25;;;5.70;;
33475;SDS011;19814;48.224;11.422;2023-05-29T04:31:22;11.07;;;5.88;;
33475;SDS011;19814;48.224;11.422;2023-05-29T04:33:50;10.15;;;5.15;;
33475;SDS011;19814;48.224;11.422;2023-05-29T04:36:19;10.70;;;5.43;;
33475;SDS011;19814;48.224;11.422;2023-05-29T04:38:48;11.23;;;6.07;;
33475;SDS011;19814;48.224;11.422;2023-05-29T04:41:16;11.63;;;5.60;;
33475;SDS011;19814;48.224;11.422;2023-05-29T04:43:41;11.60;;;5.35;;
33475;SDS011;19814;48.224;11.422;2023-05-29T04:46:07;9.55;;;5.00;;
33475;SDS011;19814;48.224;11.422;2023-05-29T04:48:37;11.27;;;5.75;;
33475;SDS011;19814;48.224;11.422;2023-05-29T04:51:05;10.35;;;5.53;;
33475;SDS011;19814;48.224;11.422;2023-05-29T04:53:31;11.57;;;5.05;;
33475;SDS011;19814;48.224;11.422;2023-05-29T04:55:57;12.80;;;5.80;;
33475;SDS011;19814;48.224;11.422;2023-05-29T04:58:25;10.90;;;5.78;;
33475;SDS011;19814;48.224;11.422;2023-05-29T05:00:51;11.07;;;5.53;;
33475;SDS011;19814;48.224;11.422;2023-05-29T05:03:16;11.38;;;5.55;;
33475;SDS011;19814;48.224;11.422;2023-05-29T05:05:42;9.40;;;5.43;;
33475;SDS011;19814;48.224;11.422;2023-05-29T05:08:08;10.32;;;5.40;;
33475;SDS011;19814;48.224;11.422;2023-05-29T05:10:36;12.30;;;5.20;;
33475;SDS011;19814;48.224;11.422;2023-05-29T05:13:02;11.20;;;5.13;;
33475;SDS011;19814;48.224;11.422;2023-05-29T05:15:28;10.88;;;5.25;;
33475;SDS011;19814;48.224;11.422;2023-05-29T05:17:53;8.85;;;4.80;;
33475;SDS011;19814;48.224;11.422;2023-05-29T05:20:19;10.05;;;5.00;;
33475;SDS011;19814;48.224;11.422;2023-05-29T05:22:44;10.43;;;4.65;;
33475;SDS011;19814;48.224;11.422;2023-05-29T05:25:10;10.07;;;5.07;;
33475;SDS011;19814;48.224;11.422;2023-05-29T05:27:36;11.80;;;4.80;;
33475;SDS011;19814;48.224;11.422;2023-05-29T05:30:05;10.85;;;5.60;;
33475;SDS011;19814;48.224;11.422;2023-05-29T05:32:31;11.73;;;4.78;;
33475;SDS011;19814;48.224;11.422;2023-05-29T05:34:57;11.43;;;5.38;;
33475;SDS011;19814;48.224;11.422;2023-05-29T05:37:23;10.88;;;5.13;;
33475;SDS011;19814;48.224;11.422;2023-05-29T05:39:49;13.90;;;5.60;;
33475;SDS011;19814;48.224;11.422;2023-05-29T05:42:15;10.48;;;5.00;;
33475;SDS011;19814;48.224;11.422;2023-05-29T05:44:41;10.20;;;4.78;;
33475;SDS011;19814;48.224;11.422;2023-05-29T05:47:06;7.10;;;3.85;;
33475;SDS011;19814;48.224;11.422;2023-05-29T05:49:32;9.10;;;5.13;;
33475;SDS011;19814;48.224;11.422;2023-05-29T05:51:58;9.38;;;4.80;;
33475;SDS011;19814;48.224;11.422;2023-05-29T05:54:24;7.55;;;4.13;;
33475;SDS011;19814;48.224;11.422;2023-05-29T05:56:49;8.77;;;4.85;;
33475;SDS011;19814;48.224;11.422;2023-05-29T05:59:15;8.45;;;4.43;;
33475;SDS011;19814;48.224;11.422;2023-05-29T06:01:40;12.05;;;4.53;;
33475;SDS011;19814;48.224;11.422;2023-05-29T06:04:09;12.23;;;4.80;;
33475;SDS011;19814;48.224;11.422;2023-05-29T06:06:34;10.63;;;4.80;;
33475;SDS011;19814;48.224;11.422;2023-05-29T06:09:00;10.35;;;4.60;;
33475;SDS011;19814;48.224;11.422;2023-05-29T06:11:26;8.30;;;4.13;;
33475;SDS011;19814;48.224;11.422;2023-05-29T06:13:51;9.05;;;4.85;;
33475;SDS011;19814;48.224;11.422;2023-05-29T06:16:17;9.02;;;3.60;;
33475;SDS011;19814;48.224;11.422;2023-05-29T06:18:43;8.10;;;4.18;;
33475;SDS011;19814;48.224;11.422;2023-05-29T06:21:09;8.80;;;4.43;;
33475;SDS011;19814;48.224;11.422;2023-05-29T06:23:36;9.05;;;4.32;;
33475;SDS011;19814;48.224;11.422;2023-05-29T06:26:02;8.45;;;4.13;;
33475;SDS011;19814;48.224;11.422;2023-05-29T06:28:28;9.05;;;4.35;;
33475;SDS011;19814;48.224;11.422;2023-05-29T06:30:54;8.65;;;4.57;;
33475;SDS011;19814;48.224;11.422;2023-05-29T06:33:20;9.07;;;4.20;;
33475;SDS011;19814;48.224;11.422;2023-05-29T06:35:46;6.97;;;3.88;;
33475;SDS011;19814;48.224;11.422;2023-05-29T06:38:13;8.40;;;4.10;;
33475;SDS011;19814;48.224;11.422;2023-05-29T06:40:39;8.65;;;4.05;;
33475;SDS011;19814;48.224;11.422;2023-05-29T06:43:05;10.25;;;4.38;;
33475;SDS011;19814;48.224;11.422;2023-05-29T06:45:30;7.60;;;3.85;;
33475;SDS011;19814;48.224;11.422;2023-05-29T06:47:56;7.57;;;4.07;;
33475;SDS011;19814;48.224;11.422;2023-05-29T06:50:22;7.47;;;3.80;;
33475;SDS011;19814;48.224;11.422;2023-05-29T06:52:47;6.38;;;3.67;;
33475;SDS011;19814;48.224;11.422;2023-05-29T06:55:13;7.70;;;4.18;;
33475;SDS011;19814;48.224;11.422;2023-05-29T06:57:38;9.75;;;4.38;;
33475;SDS011;19814;48.224;11.422;2023-05-29T07:00:04;8.23;;;3.75;;
33475;SDS011;19814;48.224;11.422;2023-05-29T07:02:31;7.47;;;4.00;;
33475;SDS011;19814;48.224;11.422;2023-05-29T07:04:57;8.85;;;3.60;;
33475;SDS011;19814;48.224;11.422;2023-05-29T07:07:22;7.25;;;4.05;;
33475;SDS011;19814;48.224;11.422;2023-05-29T07:09:48;8.15;;;3.92;;
33475;SDS011;19814;48.224;11.422;2023-05-29T07:12:13;8.63;;;4.18;;
33475;SDS011;19814;48.224;11.422;2023-05-29T07:14:39;9.88;;;3.97;;
33475;SDS011;19814;48.224;11.422;2023-05-29T07:17:05;7.72;;;3.95;;
33475;SDS011;19814;48.224;11.422;2023-05-29T07:19:30;6.28;;;3.28;;
33475;SDS011;19814;48.224;11.422;2023-05-29T07:21:58;8.15;;;3.67;;
33475;SDS011;19814;48.224;11.422;2023-05-29T07:24:24;6.50;;;3.22;;
33475;SDS011;19814;48.224;11.422;2023-05-29T07:26:50;7.32;;;3.78;;
33475;SDS011;19814;48.224;11.422;2023-05-29T07:29:16;7.45;;;3.42;;
33475;SDS011;19814;48.224;11.422;2023-05-29T07:31:43;10.98;;;4.10;;
33475;SDS011;19814;48.224;11.422;2023-05-29T07:34:09;8.75;;;4.07;;
33475;SDS011;19814;48.224;11.422;2023-05-29T07:36:35;7.68;;;3.50;;
33475;SDS011;19814;48.224;11.422;2023-05-29T07:39:01;7.63;;;4.00;;
33475;SDS011;19814;48.224;11.422;2023-05-29T07:41:27;8.35;;;3.92;;
33475;SDS011;19814;48.224;11.422;2023-05-29T07:43:53;8.32;;;3.60;;
33475;SDS011;19814;48.224;11.422;2023-05-29T07:46:20;7.60;;;3.63;;
33475;SDS011;19814;48.224;11.422;2023-05-29T07:48:46;6.28;;;3.72;;
33475;SDS011;19814;48.224;11.422;2023-05-29T07:51:11;6.60;;;3.22;;
33475;SDS011;19814;48.224;11.422;2023-05-29T07:53:37;8.13;;;3.90;;
33475;SDS011;19814;48.224;11.422;2023-05-29T07:56:03;6.85;;;3.40;;
33475;SDS011;19814;48.224;11.422;2023-05-29T07:58:28;6.63;;;3.25;;
33475;SDS011;19814;48.224;11.422;2023-05-29T08:00:54;8.05;;;3.42;;
33475;SDS011;19814;48.224;11.422;2023-05-29T08:03:19;6.70;;;3.30;;
33475;SDS011;19814;48.224;11.422;2023-05-29T08:05:46;8.20;;;3.30;;
33475;SDS011;19814;48.224;11.422;2023-05-29T08:08:11;7.75;;;3.45;;
33475;SDS011;19814;48.224;11.422;2023-05-29T08:10:37;8.38;;;3.85;;
33475;SDS011;19814;48.224;11.422;2023-05-29T08:13:03;7.28;;;3.55;;
33475;SDS011;19814;48.224;11.422;2023-05-29T08:15:29;7.75;;;3.55;;
33475;SDS011;19814;48.224;11.422;2023-05-29T08:17:58;7.20;;;3.90;;
33475;SDS011;19814;48.224;11.422;2023-05-29T08:20:25;7.45;;;3.55;;
33475;SDS011;19814;48.224;11.422;2023-05-29T08:22:50;8.10;;;3.80;;
33475;SDS011;19814;48.224;11.422;2023-05-29T08:25:16;7.82;;;3.92;;
33475;SDS011;19814;48.224;11.422;2023-05-29T08:27:41;7.15;;;4.22;;
33475;SDS011;19814;48.224;11.422;2023-05-29T08:30:07;6.75;;;3.60;;
33475;SDS011;19814;48.224;11.422;2023-05-29T08:32:33;6.00;;;3.13;;
33475;SDS011;19814;48.224;11.422;2023-05-29T08:34:58;6.30;;;3.53;;
33475;SDS011;19814;48.224;11.422;2023-05-29T08:37:24;7.25;;;3.50;;
33475;SDS011;19814;48.224;11.422;2023-05-29T08:39:50;6.18;;;3.35;;
33475;SDS011;19814;48.224;11.422;2023-05-29T08:42:21;7.28;;;3.63;;
33475;SDS011;19814;48.224;11.422;2023-05-29T08:44:55;5.55;;;3.00;;
33475;SDS011;19814;48.224;11.422;2023-05-29T08:47:22;6.43;;;3.30;;
33475;SDS011;19814;48.224;11.422;2023-05-29T08:49:54;6.10;;;3.40;;
33475;SDS011;19814;48.224;11.422;2023-05-29T08:52:24;7.20;;;3.63;;
33475;SDS011;19814;48.224;11.422;2023-05-29T08:54:53;7.00;;;3.13;;
33475;SDS011;19814;48.224;11.422;2023-05-29T08:57:19;6.72;;;3.13;;
33475;SDS011;19814;48.224;11.422;2023-05-29T08:59:45;6.75;;;3.88;;
33475;SDS011;19814;48.224;11.422;2023-05-29T09:04:41;8.35;;;3.20;;
33475;SDS011;19814;48.224;11.422;2023-05-29T09:07:10;8.15;;;3.60;;
33475;SDS011;19814;48.224;11.422;2023-05-29T09:09:36;6.72;;;3.38;;
33475;SDS011;19814;48.224;11.422;2023-05-29T09:12:02;7.22;;;3.13;;
33475;SDS011;19814;48.224;11.422;2023-05-29T09:14:41;9.57;;;3.90;;
33475;SDS011;19814;48.224;11.422;2023-05-29T09:17:09;6.60;;;3.63;;
33475;SDS011;19814;48.224;11.422;2023-05-29T09:19:36;5.93;;;3.30;;
33475;SDS011;19814;48.224;11.422;2023-05-29T09:22:03;7.57;;;3.33;;
33475;SDS011;19814;48.224;11.422;2023-05-29T09:24:35;8.18;;;3.47;;
33475;SDS011;19814;48.224;11.422;2023-05-29T09:27:02;7.10;;;3.20;;
33475;SDS011;19814;48.224;11.422;2023-05-29T09:29:32;6.03;;;2.90;;
33475;SDS011;19814;48.224;11.422;2023-05-29T09:31:58;6.83;;;3.60;;
33475;SDS011;19814;48.224;11.422;2023-05-29T09:34:24;5.57;;;3.35;;
33475;SDS011;19814;48.224;11.422;2023-05-29T09:36:53;6.32;;;3.45;;
33475;SDS011;19814;48.224;11.422;2023-05-29T09:39:27;6.10;;;3.45;;
33475;SDS011;19814;48.224;11.422;2023-05-29T09:41:53;7.43;;;3.30;;
33475;SDS011;19814;48.224;11.422;2023-05-29T09:44:22;6.10;;;3.25;;
33475;SDS011;19814;48.224;11.422;2023-05-29T09:46:48;7.30;;;3.30;;
33475;SDS011;19814;48.224;11.422;2023-05-29T09:49:14;6.63;;;3.35;;
33475;SDS011;19814;48.224;11.422;2023-05-29T09:51:41;5.22;;;2.88;;
33475;SDS011;19814;48.224;11.422;2023-05-29T09:54:13;5.88;;;3.17;;
33475;SDS011;19814;48.224;11.422;2023-05-29T09:56:42;6.35;;;3.22;;
33475;SDS011;19814;48.224;11.422;2023-05-29T09:59:14;6.22;;;3.42;;
33475;SDS011;19814;48.224;11.422;2023-05-29T10:01:43;7.30;;;3.10;;
33475;SDS011;19814;48.224;11.422;2023-05-29T10:04:12;7.35;;;3.03;;
33475;SDS011;19814;48.224;11.422;2023-05-29T10:06:41;5.03;;;3.10;;
33475;SDS011;19814;48.224;11.422;2023-05-29T10:09:12;5.47;;;2.80;;
33475;SDS011;19814;48.224;11.422;2023-05-29T10:11:43;6.73;;;3.33;;
33475;SDS011;19814;48.224;11.422;2023-05-29T10:14:14;6.13;;;3.13;;
33475;SDS011;19814;48.224;11.422;2023-05-29T10:16:43;8.02;;;3.03;;
33475;SDS011;19814;48.224;11.422;2023-05-29T10:19:16;8.70;;;3.33;;
33475;SDS011;19814;48.224;11.422;2023-05-29T10:21:47;4.88;;;3.08;;
33475;SDS011;19814;48.224;11.422;2023-05-29T10:24:14;4.97;;;2.90;;
33475;SDS011;19814;48.224;11.422;2023-05-29T10:26:40;4.63;;;2.85;;
33475;SDS011;19814;48.224;11.422;2023-05-29T10:29:12;4.72;;;2.90;;
33475;SDS011;19814;48.224;11.422;2023-05-29T10:34:39;5.18;;;3.10;;
33475;SDS011;19814;48.224;11.422;2023-05-29T10:40:10;5.30;;;3.08;;
33475;SDS011;19814;48.224;11.422;2023-05-29T10:45:09;5.47;;;3.10;;
33475;SDS011;19814;48.224;11.422;2023-05-29T10:47:36;4.35;;;2.53;;
33475;SDS011;19814;48.224;11.422;2023-05-29T10:50:02;5.03;;;3.08;;
33475;SDS011;19814;48.224;11.422;2023-05-29T10:52:32;5.05;;;2.70;;
33475;SDS011;19814;48.224;11.422;2023-05-29T10:54:58;6.47;;;3.22;;
33475;SDS011;19814;48.224;11.422;2023-05-29T10:57:25;5.75;;;2.92;;
33475;SDS011;19814;48.224;11.422;2023-05-29T11:00:24;5.43;;;2.75;;
33475;SDS011;19814;48.224;11.422;2023-05-29T11:02:45;4.93;;;2.58;;
33475;SDS011;19814;48.224;11.422;2023-05-29T11:05:18;5.43;;;3.20;;
33475;SDS011;19814;48.224;11.422;2023-05-29T11:07:52;7.25;;;3.15;;
33475;SDS011;19814;48.224;11.422;2023-05-29T11:10:18;7.20;;;3.10;;
33475;SDS011;19814;48.224;11.422;2023-05-29T11:13:26;6.35;;;2.92;;
33475;SDS011;19814;48.224;11.422;2023-05-29T11:16:14;5.13;;;3.10;;
33475;SDS011;19814;48.224;11.422;2023-05-29T11:18:53;5.25;;;2.88;;
33475;SDS011;19814;48.224;11.422;2023-05-29T11:23:51;5.15;;;3.13;;
33475;SDS011;19814;48.224;11.422;2023-05-29T11:26:22;6.30;;;3.10;;
33475;SDS011;19814;48.224;11.422;2023-05-29T11:28:48;7.10;;;3.05;;
33475;SDS011;19814;48.224;11.422;2023-05-29T11:31:14;5.10;;;2.95;;
33475;SDS011;19814;48.224;11.422;2023-05-29T11:33:41;4.88;;;2.80;;
33475;SDS011;19814;48.224;11.422;2023-05-29T11:36:12;6.22;;;3.42;;
33475;SDS011;19814;48.224;11.422;2023-05-29T11:38:39;7.00;;;2.90;;
33475;SDS011;19814;48.224;11.422;2023-05-29T11:41:05;5.43;;;2.83;;
33475;SDS011;19814;48.224;11.422;2023-05-29T11:43:30;5.82;;;2.95;;
33475;SDS011;19814;48.224;11.422;2023-05-29T11:45:57;6.50;;;3.38;;
33475;SDS011;19814;48.224;11.422;2023-05-29T11:48:22;6.15;;;3.10;;
33475;SDS011;19814;48.224;11.422;2023-05-29T11:50:48;5.00;;;2.72;;
33475;SDS011;19814;48.224;11.422;2023-05-29T11:53:15;6.00;;;2.90;;
33475;SDS011;19814;48.224;11.422;2023-05-29T11:55:41;6.25;;;3.08;;
33475;SDS011;19814;48.224;11.422;2023-05-29T11:58:06;6.57;;;3.20;;
33475;SDS011;19814;48.224;11.422;2023-05-29T12:00:32;6.30;;;3.03;;
33475;SDS011;19814;48.224;11.422;2023-05-29T12:03:02;5.63;;;2.95;;
33475;SDS011;19814;48.224;11.422;2023-05-29T12:05:32;6.10;;;2.70;;
33475;SDS011;19814;48.224;11.422;2023-05-29T12:08:09;6.20;;;2.65;;
33475;SDS011;19814;48.224;11.422;2023-05-29T12:10:34;4.82;;;3.22;;
33475;SDS011;19814;48.224;11.422;2023-05-29T12:13:00;4.95;;;3.33;;
33475;SDS011;19814;48.224;11.422;2023-05-29T12:15:26;5.32;;;2.90;;
33475;SDS011;19814;48.224;11.422;2023-05-29T12:17:52;5.22;;;2.80;;
33475;SDS011;19814;48.224;11.422;2023-05-29T12:20:21;9.55;;;3.33;;
33475;SDS011;19814;48.224;11.422;2023-05-29T12:22:48;5.07;;;2.92;;
33475;SDS011;19814;48.224;11.422;2023-05-29T12:27:45;7.15;;;3.03;;
33475;SDS011;19814;48.224;11.422;2023-05-29T12:30:12;6.22;;;3.28;;
33475;SDS011;19814;48.224;11.422;2023-05-29T12:32:42;7.78;;;3.15;;
33475;SDS011;19814;48.224;11.422;2023-05-29T12:35:21;7.85;;;3.20;;
33475;SDS011;19814;48.224;11.422;2023-05-29T12:40:18;6.80;;;2.65;;
33475;SDS011;19814;48.224;11.422;2023-05-29T12:42:45;6.65;;;3.17;;
33475;SDS011;19814;48.224;11.422;2023-05-29T12:45:12;6.20;;;2.53;;
33475;SDS011;19814;48.224;11.422;2023-05-29T12:47:44;6.57;;;3.10;;
33475;SDS011;19814;48.224;11.422;2023-05-29T12:53:00;6.28;;;3.08;;
33475;SDS011;19814;48.224;11.422;2023-05-29T12:55:36;5.78;;;2.78;;
33475;SDS011;19814;48.224;11.422;2023-05-29T12:58:04;6.18;;;3.08;;
33475;SDS011;19814;48.224;11.422;2023-05-29T13:00:31;6.60;;;2.85;;
33475;SDS011;19814;48.224;11.422;2023-05-29T13:02:58;7.05;;;3.00;;
33475;SDS011;19814;48.224;11.422;2023-05-29T13:05:23;5.93;;;3.20;;
33475;SDS011;19814;48.224;11.422;2023-05-29T13:07:50;5.65;;;2.40;;
33475;SDS011;19814;48.224;11.422;2023-05-29T13:10:17;5.57;;;2.78;;
33475;SDS011;19814;48.224;11.422;2023-05-29T13:12:43;5.97;;;2.45;;
33475;SDS011;19814;48.224;11.422;2023-05-29T13:15:10;5.70;;;2.95;;
33475;SDS011;19814;48.224;11.422;2023-05-29T13:17:37;6.15;;;2.90;;
33475;SDS011;19814;48.224;11.422;2023-05-29T13:20:06;5.65;;;2.58;;
33475;SDS011;19814;48.224;11.422;2023-05-29T13:22:35;4.47;;;2.40;;
33475;SDS011;19814;48.224;11.422;2023-05-29T13:25:02;6.22;;;2.92;;
33475;SDS011;19814;48.224;11.422;2023-05-29T13:27:27;6.43;;;2.97;;
33475;SDS011;19814;48.224;11.422;2023-05-29T13:29:53;5.28;;;2.88;;
33475;SDS011;19814;48.224;11.422;2023-05-29T13:32:19;6.18;;;2.97;;
33475;SDS011;19814;48.224;11.422;2023-05-29T13:34:45;6.47;;;2.75;;
33475;SDS011;19814;48.224;11.422;2023-05-29T13:37:11;5.82;;;2.80;;
33475;SDS011;19814;48.224;11.422;2023-05-29T13:39:36;7.00;;;2.67;;
33475;SDS011;19814;48.224;11.422;2023-05-29T13:42:02;6.03;;;2.40;;
33475;SDS011;19814;48.224;11.422;2023-05-29T13:44:28;5.80;;;2.75;;
33475;SDS011;19814;48.224;11.422;2023-05-29T13:46:53;5.80;;;3.03;;
33475;SDS011;19814;48.224;11.422;2023-05-29T13:49:19;5.05;;;2.30;;
33475;SDS011;19814;48.224;11.422;2023-05-29T13:51:45;5.75;;;2.40;;
33475;SDS011;19814;48.224;11.422;2023-05-29T13:54:12;5.82;;;2.63;;
33475;SDS011;19814;48.224;11.422;2023-05-29T13:56:37;8.80;;;2.67;;
33475;SDS011;19814;48.224;11.422;2023-05-29T13:59:03;4.75;;;2.65;;
33475;SDS011;19814;48.224;11.422;2023-05-29T14:01:31;5.30;;;2.60;;
33475;SDS011;19814;48.224;11.422;2023-05-29T14:03:58;5.03;;;2.35;;
33475;SDS011;19814;48.224;11.422;2023-05-29T14:06:24;6.22;;;2.33;;
33475;SDS011;19814;48.224;11.422;2023-05-29T14:08:49;6.68;;;2.63;;
33475;SDS011;19814;48.224;11.422;2023-05-29T14:11:15;7.25;;;3.03;;
33475;SDS011;19814;48.224;11.422;2023-05-29T14:13:41;5.30;;;2.45;;
33475;SDS011;19814;48.224;11.422;2023-05-29T14:16:06;5.63;;;2.22;;
33475;SDS011;19814;48.224;11.422;2023-05-29T14:18:32;4.18;;;2.42;;
33475;SDS011;19814;48.224;11.422;2023-05-29T14:20:57;5.47;;;2.78;;
33475;SDS011;19814;48.224;11.422;2023-05-29T14:23:23;5.38;;;2.85;;
33475;SDS011;19814;48.224;11.422;2023-05-29T14:25:48;5.50;;;2.55;;
33475;SDS011;19814;48.224;11.422;2023-05-29T14:28:16;4.32;;;2.47;;
33475;SDS011;19814;48.224;11.422;2023-05-29T14:30:42;5.13;;;2.20;;
33475;SDS011;19814;48.224;11.422;2023-05-29T14:33:08;4.68;;;2.10;;
33475;SDS011;19814;48.224;11.422;2023-05-29T14:35:33;5.53;;;2.42;;
33475;SDS011;19814;48.224;11.422;2023-05-29T14:37:59;5.57;;;2.70;;
33475;SDS011;19814;48.224;11.422;2023-05-29T14:40:26;7.57;;;2.42;;
33475;SDS011;19814;48.224;11.422;2023-05-29T14:42:51;5.72;;;2.78;;
33475;SDS011;19814;48.224;11.422;2023-05-29T14:45:17;5.20;;;2.38;;
33475;SDS011;19814;48.224;11.422;2023-05-29T14:47:43;6.22;;;2.50;;
33475;SDS011;19814;48.224;11.422;2023-05-29T14:50:08;7.03;;;2.53;;
33475;SDS011;19814;48.224;11.422;2023-05-29T14:52:34;5.78;;;2.70;;
33475;SDS011;19814;48.224;11.422;2023-05-29T14:55:01;5.63;;;2.65;;
33475;SDS011;19814;48.224;11.422;2023-05-29T14:57:27;5.75;;;2.35;;
33475;SDS011;19814;48.224;11.422;2023-05-29T14:59:52;5.25;;;2.35;;